Time;durP1;ratioP1;P1;durP2;ratioP2;P2;SDS_P1;SDS_P2;PMS_P1;PMS_P2;Temp;Humidity;BMP_temperature;BMP_pressure;BME280_temperature;BME280_humidity;BME280_pressure;Samples;Min_cycle;Max_cycle;Signal;HPM_P1;HPM_P2
2022/10/25 00:01:41;;;;;;;8.35;1.50;;;17.70;56.60;;;;;;5039589;28;20527;-56
2022/10/25 00:04:10;;;;;;;2.92;0.80;;;17.70;56.60;;;;;;5039801;28;20416;-53
2022/10/25 00:06:37;;;;;;;3.97;1.10;;;17.70;56.60;;;;;;5032601;28;20049;-56
2022/10/25 00:09:04;;;;;;;3.20;1.23;;;17.60;56.50;;;;;;5040195;28;20061;-56
2022/10/25 00:11:32;;;;;;;4.65;0.77;;;17.60;56.50;;;;;;5034643;28;20053;-56
2022/10/25 00:14:04;;;;;;;4.90;1.08;;;17.60;56.50;;;;;;5046467;28;20057;-56
2022/10/25 00:16:34;;;;;;;2.72;0.73;;;17.60;56.60;;;;;;5045128;28;20052;-56
2022/10/25 00:19:01;;;;;;;6.25;1.60;;;17.50;56.50;;;;;;5045767;28;20053;-56
2022/10/25 00:21:29;;;;;;;9.32;1.50;;;17.50;56.60;;;;;;5040030;28;20065;-56
2022/10/25 00:23:56;;;;;;;7.53;1.10;;;17.50;56.60;;;;;;5041816;28;20044;-55
2022/10/25 00:26:24;;;;;;;2.60;0.60;;;17.50;56.60;;;;;;5041885;28;20060;-55
2022/10/25 00:28:54;;;;;;;6.15;1.20;;;17.40;56.60;;;;;;5045386;28;20516;-54
2022/10/25 00:31:22;;;;;;;4.60;1.02;;;17.40;56.70;;;;;;5042351;28;20060;-56
2022/10/25 00:33:49;;;;;;;5.45;1.02;;;17.40;56.70;;;;;;5045873;28;20053;-55
2022/10/25 00:36:18;;;;;;;9.32;1.33;;;17.40;56.80;;;;;;5043986;28;20412;-55
2022/10/25 00:38:47;;;;;;;5.57;1.05;;;17.30;56.70;;;;;;5031952;28;20064;-56
2022/10/25 00:41:17;;;;;;;5.63;1.38;;;17.30;56.70;;;;;;5043103;28;20493;-56
2022/10/25 00:43:47;;;;;;;5.03;1.23;;;17.30;56.80;;;;;;5045310;28;20053;-56
2022/10/25 00:46:20;;;;;;;5.38;1.27;;;17.30;56.80;;;;;;5037917;28;20049;-56
2022/10/25 00:48:53;;;;;;;8.07;1.50;;;17.20;56.80;;;;;;5042578;28;20041;-56
2022/10/25 00:51:21;;;;;;;3.53;0.88;;;17.20;56.90;;;;;;5038209;28;20056;-55
2022/10/25 00:53:50;;;;;;;6.18;0.98;;;17.20;56.80;;;;;;5044917;28;20060;-56
2022/10/25 00:56:20;;;;;;;5.35;0.90;;;17.20;56.90;;;;;;5040280;28;20059;-55
2022/10/25 00:58:53;;;;;;;5.55;1.15;;;17.20;57.00;;;;;;5041668;28;20512;-56
2022/10/25 01:01:23;;;;;;;3.28;0.82;;;17.10;57.00;;;;;;5041320;28;20668;-56
2022/10/25 01:03:52;;;;;;;2.80;0.80;;;17.10;57.10;;;;;;5046705;28;20072;-56
2022/10/25 01:06:22;;;;;;;9.90;1.45;;;17.10;57.10;;;;;;5041597;28;20057;-55
2022/10/25 01:08:52;;;;;;;9.15;1.50;;;17.10;57.30;;;;;;5042221;28;20485;-56
2022/10/25 01:11:20;;;;;;;3.83;1.17;;;17.10;57.40;;;;;;5037564;28;20057;-56
2022/10/25 01:13:48;;;;;;;3.90;1.15;;;17.10;57.40;;;;;;5044790;28;20060;-56
2022/10/25 01:16:24;;;;;;;5.55;1.00;;;17.10;57.40;;;;;;5042750;28;20048;-56
2022/10/25 01:18:58;;;;;;;3.03;0.90;;;17.10;57.40;;;;;;5039755;28;20049;-55
2022/10/25 01:21:33;;;;;;;;;;;17.10;57.50;;;;;;5043021;28;20500;-55
2022/10/25 01:24:46;;;;;;;7.35;1.25;;;17.10;57.50;;;;;;5042123;28;19928;-56
2022/10/25 01:27:47;;;;;;;4.82;1.05;;;17.10;57.20;;;;;;5029888;28;20045;-56
2022/10/25 01:30:19;;;;;;;6.70;0.98;;;17.10;57.20;;;;;;5036863;28;20060;-56
2022/10/25 01:33:04;;;;;;;4.10;0.82;;;17.00;57.10;;;;;;5043827;28;20527;-53
2022/10/25 01:35:35;;;;;;;5.35;1.20;;;17.00;57.30;;;;;;5033796;28;20055;-55
2022/10/25 01:38:16;;;;;;;4.30;0.70;;;17.00;57.30;;;;;;5025060;28;20057;-56
2022/10/25 01:40:51;;;;;;;6.38;1.10;;;17.00;57.40;;;;;;5035654;28;20056;-55
2022/10/25 01:43:28;;;;;;;5.07;0.90;;;16.90;57.40;;;;;;5043761;28;20056;-56
2022/10/25 01:46:01;;;;;;;7.03;0.90;;;16.90;57.40;;;;;;5044560;28;20491;-54
2022/10/25 01:48:34;;;;;;;4.97;1.00;;;16.90;57.40;;;;;;5037379;28;20049;-56
2022/10/25 01:51:09;;;;;;;2.93;0.90;;;16.90;57.50;;;;;;5045390;28;20068;-56
2022/10/25 01:53:45;;;;;;;5.95;1.13;;;16.90;57.40;;;;;;5044366;28;20503;-56
2022/10/25 01:56:19;;;;;;;5.78;0.82;;;16.90;57.50;;;;;;5044681;28;20049;-56
2022/10/25 01:59:07;;;;;;;4.20;0.95;;;16.90;57.50;;;;;;5036986;28;20053;-56
2022/10/25 02:01:41;;;;;;;7.00;1.17;;;16.80;57.50;;;;;;5029494;28;20440;-56
2022/10/25 02:04:19;;;;;;;5.68;0.85;;;16.80;57.50;;;;;;5044581;28;20055;-54
2022/10/25 02:06:55;;;;;;;3.95;1.02;;;16.80;57.50;;;;;;5043859;28;20049;-56
2022/10/25 02:09:30;;;;;;;1.75;0.70;;;16.80;57.60;;;;;;5043289;28;20079;-56
2022/10/25 02:11:59;;;;;;;7.68;1.05;;;16.80;57.70;;;;;;5034959;28;20052;-56
2022/10/25 02:14:33;;;;;;;7.15;1.10;;;16.80;57.70;;;;;;5044598;28;20500;-56
2022/10/25 02:17:05;;;;;;;5.07;0.93;;;16.80;57.80;;;;;;5034173;28;20049;-57
2022/10/25 02:19:38;;;;;;;3.88;0.90;;;16.70;57.80;;;;;;5043686;28;20501;-56
2022/10/25 02:22:08;;;;;;;2.95;0.82;;;16.70;57.90;;;;;;5029057;28;20057;-56
2022/10/25 02:24:36;;;;;;;3.25;0.80;;;16.70;58.00;;;;;;5044404;28;20049;-56
2022/10/25 02:27:06;;;;;;;3.20;0.77;;;16.80;58.10;;;;;;5032353;28;20543;-56
2022/10/25 02:29:35;;;;;;;4.32;0.80;;;16.70;58.10;;;;;;5040922;28;20053;-56
2022/10/25 02:32:03;;;;;;;6.50;0.90;;;16.70;58.10;;;;;;5041756;28;20058;-55
2022/10/25 02:34:30;;;;;;;2.88;1.00;;;16.70;58.20;;;;;;5038565;28;20057;-54
2022/10/25 02:37:00;;;;;;;6.30;1.00;;;16.80;58.20;;;;;;5042647;28;20060;-56
2022/10/25 02:39:29;;;;;;;3.58;0.88;;;16.70;58.20;;;;;;5043771;28;20049;-57
2022/10/25 02:41:56;;;;;;;6.32;0.95;;;16.70;58.20;;;;;;5042967;28;20060;-53
2022/10/25 02:44:23;;;;;;;5.13;0.88;;;16.70;58.20;;;;;;5037506;28;20056;-55
2022/10/25 02:46:50;;;;;;;4.97;0.63;;;16.70;58.20;;;;;;5041416;28;20045;-55
2022/10/25 02:49:18;;;;;;;2.42;0.80;;;16.70;58.30;;;;;;5044269;28;20053;-54
2022/10/25 02:51:45;;;;;;;6.57;0.90;;;16.70;58.20;;;;;;5043092;28;20053;-56
2022/10/25 02:54:14;;;;;;;6.30;1.10;;;16.70;58.20;;;;;;5040937;28;20056;-52
2022/10/25 02:56:41;;;;;;;3.95;0.70;;;16.70;58.30;;;;;;5041436;28;20060;-50
2022/10/25 02:59:11;;;;;;;11.32;1.15;;;16.70;58.30;;;;;;5042949;28;20056;-53
2022/10/25 03:01:38;;;;;;;6.85;1.45;;;16.70;58.30;;;;;;5037045;28;20048;-47
2022/10/25 03:04:05;;;;;;;7.20;1.05;;;16.70;58.30;;;;;;5038166;28;20432;-51
2022/10/25 03:06:33;;;;;;;3.05;0.63;;;16.70;58.30;;;;;;5034109;28;20049;-51
2022/10/25 03:09:00;;;;;;;2.15;0.70;;;16.70;58.30;;;;;;5040738;28;20590;-49
2022/10/25 03:11:28;;;;;;;1.23;0.50;;;16.70;58.70;;;;;;5041535;28;20060;-51
2022/10/25 03:13:56;;;;;;;5.63;1.08;;;16.70;58.20;;;;;;5042503;28;20076;-53
2022/10/25 03:16:23;;;;;;;5.15;0.95;;;16.70;58.20;;;;;;5042025;28;20055;-48
2022/10/25 03:18:50;;;;;;;5.15;1.13;;;16.70;58.20;;;;;;5041002;28;20045;-50
2022/10/25 03:21:17;;;;;;;8.02;1.13;;;16.60;58.20;;;;;;5042109;28;20056;-50
2022/10/25 03:23:44;;;;;;;4.60;0.93;;;16.60;58.20;;;;;;5032562;28;20061;-51
2022/10/25 03:26:12;;;;;;;4.32;0.90;;;16.60;58.30;;;;;;5017646;28;20054;-49
2022/10/25 03:28:41;;;;;;;4.32;1.10;;;16.60;58.40;;;;;;5026395;28;20049;-49
2022/10/25 03:31:11;;;;;;;4.28;0.90;;;16.60;58.40;;;;;;5035788;28;20049;-54
2022/10/25 03:33:39;;;;;;;2.28;0.90;;;16.60;58.50;;;;;;5033756;28;20049;-53
2022/10/25 03:36:07;;;;;;;4.88;0.73;;;16.60;58.50;;;;;;5030252;28;20509;-49
2022/10/25 03:38:35;;;;;;;3.30;0.70;;;16.60;58.50;;;;;;5040429;28;20079;-52
2022/10/25 03:41:02;;;;;;;3.05;0.70;;;16.60;58.60;;;;;;5026632;28;20061;-49
2022/10/25 03:43:29;;;;;;;4.38;0.70;;;16.60;58.60;;;;;;5036340;28;20056;-49
2022/10/25 03:45:58;;;;;;;2.50;0.75;;;16.60;58.60;;;;;;5044099;28;20048;-49
2022/10/25 03:48:25;;;;;;;4.00;0.90;;;16.60;58.60;;;;;;5041620;28;20056;-50
2022/10/25 03:50:54;;;;;;;3.70;0.80;;;16.60;58.60;;;;;;5042385;28;20053;-49
2022/10/25 03:53:21;;;;;;;2.92;0.70;;;16.60;58.60;;;;;;5042508;28;20393;-52
2022/10/25 03:55:48;;;;;;;3.20;0.90;;;16.60;58.60;;;;;;5034191;28;20056;-55
2022/10/25 03:58:16;;;;;;;4.25;0.60;;;16.60;58.60;;;;;;5045879;28;20051;-51
2022/10/25 04:00:43;;;;;;;5.47;1.10;;;16.60;58.70;;;;;;5042900;28;20053;-52
2022/10/25 04:03:11;;;;;;;5.28;0.70;;;16.60;58.80;;;;;;5045379;28;20057;-49
2022/10/25 04:05:39;;;;;;;4.22;0.82;;;16.50;58.80;;;;;;5042077;28;20803;-51
2022/10/25 04:08:06;;;;;;;4.97;1.15;;;16.50;58.80;;;;;;5035280;28;20515;-50
2022/10/25 04:10:33;;;;;;;6.60;1.17;;;16.60;58.90;;;;;;5041483;28;20424;-52
2022/10/25 04:13:02;;;;;;;10.02;1.52;;;16.50;58.90;;;;;;5045816;28;20489;-52
2022/10/25 04:15:29;;;;;;;7.38;1.08;;;16.60;59.00;;;;;;5031894;28;20513;-51
2022/10/25 04:17:56;;;;;;;3.72;0.88;;;16.60;59.00;;;;;;5026890;28;20056;-51
2022/10/25 04:20:25;;;;;;;4.35;0.85;;;16.60;59.00;;;;;;5040103;28;20045;-52
2022/10/25 04:22:56;;;;;;;7.32;1.00;;;16.60;59.10;;;;;;5041578;28;20056;-49
2022/10/25 04:25:24;;;;;;;4.82;0.75;;;16.60;59.10;;;;;;5042814;28;20049;-52
2022/10/25 04:27:51;;;;;;;5.13;0.90;;;16.60;59.10;;;;;;5029798;28;20069;-50
2022/10/25 04:30:18;;;;;;;4.07;0.95;;;16.60;59.10;;;;;;5042304;28;20778;-51
2022/10/25 04:32:46;;;;;;;6.22;1.30;;;16.60;59.20;;;;;;5037921;28;20409;-50
2022/10/25 04:35:13;;;;;;;3.90;1.00;;;16.60;59.20;;;;;;5044036;28;20493;-50
2022/10/25 04:37:41;;;;;;;5.63;0.88;;;16.60;59.20;;;;;;5039357;28;20049;-53
2022/10/25 04:40:10;;;;;;;2.53;0.60;;;16.60;59.30;;;;;;5035846;28;20061;-53
2022/10/25 04:42:37;;;;;;;6.90;0.70;;;16.60;59.20;;;;;;5039754;28;21012;-50
2022/10/25 04:45:05;;;;;;;6.35;0.90;;;16.60;59.20;;;;;;5043520;28;20626;-49
2022/10/25 04:47:33;;;;;;;6.40;0.90;;;16.70;59.30;;;;;;5042436;28;20052;-52
2022/10/25 04:50:00;;;;;;;4.97;0.75;;;16.70;59.30;;;;;;5043309;28;20064;-52
2022/10/25 04:52:28;;;;;;;2.70;0.85;;;16.70;59.30;;;;;;5040597;28;20049;-50
2022/10/25 04:54:57;;;;;;;5.65;1.23;;;16.70;59.30;;;;;;5043702;28;20049;-51
2022/10/25 04:57:25;;;;;;;14.48;5.65;;;16.70;59.30;;;;;;5043673;28;20052;-49
2022/10/25 04:59:52;;;;;;;8.68;4.13;;;16.70;59.30;;;;;;5034460;28;20057;-51
2022/10/25 05:02:19;;;;;;;6.28;2.55;;;16.70;59.30;;;;;;5041543;28;20053;-50
2022/10/25 05:04:47;;;;;;;7.43;1.30;;;16.70;59.30;;;;;;5035237;28;20394;-52
2022/10/25 05:07:16;;;;;;;8.13;1.42;;;16.70;59.20;;;;;;5039752;28;20053;-50
2022/10/25 05:09:44;;;;;;;6.35;1.00;;;16.70;59.20;;;;;;5043428;28;20060;-53
2022/10/25 05:12:12;;;;;;;6.25;1.23;;;16.70;59.20;;;;;;5043384;28;20123;-49
2022/10/25 05:14:39;;;;;;;4.47;1.20;;;16.80;59.20;;;;;;5044557;28;20057;-48
2022/10/25 05:17:07;;;;;;;6.57;0.90;;;16.70;59.10;;;;;;5043406;28;20057;-51
2022/10/25 05:19:34;;;;;;;4.30;1.08;;;16.70;59.10;;;;;;5041252;28;20056;-51
2022/10/25 05:22:01;;;;;;;3.38;1.15;;;16.70;59.10;;;;;;5039747;28;20064;-52
2022/10/25 05:24:28;;;;;;;7.70;1.60;;;16.70;59.00;;;;;;5040073;28;20060;-50
2022/10/25 05:26:56;;;;;;;4.28;1.20;;;16.70;58.90;;;;;;5043023;28;20397;-45
2022/10/25 05:29:24;;;;;;;4.53;1.10;;;16.70;58.90;;;;;;5044451;28;20065;-46
2022/10/25 05:31:51;;;;;;;3.17;0.77;;;16.70;58.90;;;;;;5036154;28;20408;-50
2022/10/25 05:34:19;;;;;;;4.13;1.05;;;16.70;58.90;;;;;;5036921;28;20056;-46
2022/10/25 05:36:46;;;;;;;5.80;1.02;;;16.70;58.90;;;;;;5039285;28;20079;-50
2022/10/25 05:39:13;;;;;;;8.88;1.25;;;16.70;58.90;;;;;;5033461;28;20512;-47
2022/10/25 05:41:40;;;;;;;6.82;1.10;;;16.70;58.90;;;;;;5028092;28;20057;-48
2022/10/25 05:44:08;;;;;;;4.85;1.05;;;16.70;58.90;;;;;;5037080;28;20466;-50
2022/10/25 05:46:36;;;;;;;9.65;1.35;;;16.70;58.90;;;;;;5043451;28;20060;-48
2022/10/25 05:49:04;;;;;;;4.70;1.23;;;16.70;59.00;;;;;;5039858;28;20059;-49
2022/10/25 05:51:33;;;;;;;2.53;0.90;;;16.70;59.00;;;;;;5039425;28;20056;-51
2022/10/25 05:54:02;;;;;;;3.92;0.75;;;16.80;59.00;;;;;;5037014;28;20057;-48
2022/10/25 05:56:31;;;;;;;4.93;1.13;;;16.80;59.00;;;;;;5037404;28;20064;-48
2022/10/25 05:59:01;;;;;;;4.88;0.75;;;16.80;59.00;;;;;;5043720;28;20057;-51
2022/10/25 06:01:29;;;;;;;2.95;1.00;;;16.80;59.00;;;;;;5036045;28;20064;-49
2022/10/25 06:03:57;;;;;;;3.53;1.00;;;16.80;59.00;;;;;;5039739;28;20060;-51
2022/10/25 06:06:24;;;;;;;3.60;0.65;;;16.80;59.00;;;;;;5042725;28;20441;-49
2022/10/25 06:08:56;;;;;;;4.15;1.00;;;16.80;58.90;;;;;;5038181;28;20064;-48
2022/10/25 06:11:24;;;;;;;4.07;0.63;;;16.80;59.00;;;;;;5041621;28;20493;-48
2022/10/25 06:13:52;;;;;;;6.53;0.88;;;16.80;58.90;;;;;;5043763;28;20053;-48
2022/10/25 06:16:20;;;;;;;8.73;1.30;;;16.80;58.90;;;;;;5043244;28;20061;-47
2022/10/25 06:18:48;;;;;;;4.07;0.98;;;16.90;59.00;;;;;;5043613;28;20048;-52
2022/10/25 06:21:18;;;;;;;2.70;0.90;;;16.90;59.00;;;;;;5038226;28;20505;-51
2022/10/25 06:23:47;;;;;;;7.75;1.15;;;16.90;58.90;;;;;;5037231;28;20053;-52
2022/10/25 06:26:16;;;;;;;3.72;1.00;;;16.90;59.00;;;;;;5038647;28;20064;-49
2022/10/25 06:28:43;;;;;;;3.78;1.05;;;16.90;59.00;;;;;;5038556;28;20045;-51
2022/10/25 06:31:12;;;;;;;6.18;1.00;;;16.90;59.00;;;;;;5037463;28;21373;-55
2022/10/25 06:33:40;;;;;;;5.57;0.70;;;16.90;59.00;;;;;;5039070;28;20053;-52
2022/10/25 06:36:12;;;;;;;6.20;1.27;;;17.00;59.00;;;;;;5043027;28;20503;-48
2022/10/25 06:38:40;;;;;;;5.00;0.95;;;17.00;59.00;;;;;;5038651;28;20052;-52
2022/10/25 06:41:11;;;;;;;5.13;1.67;;;17.00;58.90;;;;;;5031426;28;20062;-49
2022/10/25 06:43:39;;;;;;;4.00;1.00;;;17.00;58.90;;;;;;5020531;28;20068;-54
2022/10/25 06:46:07;;;;;;;2.85;0.82;;;17.00;58.90;;;;;;5020464;28;20060;-51
2022/10/25 06:48:34;;;;;;;12.45;1.48;;;17.00;58.90;;;;;;5018292;28;20053;-52
2022/10/25 06:51:02;;;;;;;6.43;0.90;;;17.00;59.00;;;;;;5023782;28;20045;-51
2022/10/25 06:53:30;;;;;;;3.88;0.98;;;17.10;59.10;;;;;;5036530;28;20069;-51
2022/10/25 06:56:01;;;;;;;4.65;1.08;;;17.00;59.00;;;;;;5040618;28;20061;-49
2022/10/25 06:58:30;;;;;;;4.13;0.90;;;17.10;59.10;;;;;;5035655;28;20056;-55
2022/10/25 07:01:01;;;;;;;9.88;1.33;;;17.10;59.10;;;;;;5036804;28;20053;-49
2022/10/25 07:03:33;;;;;;;5.88;1.00;;;17.10;59.10;;;;;;5031672;28;20052;-51
2022/10/25 07:06:01;;;;;;;4.22;0.90;;;17.10;59.10;;;;;;5037734;28;20068;-49
2022/10/25 07:08:29;;;;;;;7.85;0.93;;;17.10;59.10;;;;;;5036357;28;20072;-53
2022/10/25 07:10:56;;;;;;;4.50;0.90;;;17.20;59.10;;;;;;5034628;28;20052;-51
2022/10/25 07:13:25;;;;;;;4.13;0.85;;;17.20;59.10;;;;;;5040198;28;20048;-50
2022/10/25 07:15:53;;;;;;;3.40;1.02;;;17.20;59.10;;;;;;5036928;28;20049;-50
2022/10/25 07:18:20;;;;;;;2.88;0.70;;;17.20;59.10;;;;;;5039816;28;20048;-53
2022/10/25 07:20:49;;;;;;;5.97;1.17;;;17.20;59.10;;;;;;5039286;28;20044;-55
2022/10/25 07:23:16;;;;;;;5.70;1.02;;;17.20;59.10;;;;;;5034447;28;20464;-49
2022/10/25 07:25:43;;;;;;;6.78;1.30;;;17.20;59.10;;;;;;5040320;28;20417;-51
2022/10/25 07:28:12;;;;;;;6.50;1.20;;;17.20;59.10;;;;;;5033136;28;20057;-51
2022/10/25 07:30:46;;;;;;;5.57;1.50;;;17.20;59.10;;;;;;5027216;28;20060;-52
2022/10/25 07:33:14;;;;;;;7.97;1.13;;;17.30;59.20;;;;;;5022680;28;20057;-49
2022/10/25 07:35:44;;;;;;;3.70;1.02;;;17.30;59.00;;;;;;5041747;28;20068;-48
2022/10/25 07:38:12;;;;;;;7.13;1.00;;;17.30;58.90;;;;;;5038798;28;20053;-47
2022/10/25 07:40:39;;;;;;;9.80;0.98;;;17.30;58.90;;;;;;5037977;28;20071;-49
2022/10/25 07:43:07;;;;;;;4.03;0.77;;;17.30;58.90;;;;;;5027643;28;20381;-48
2022/10/25 07:45:34;;;;;;;9.88;1.15;;;17.30;58.90;;;;;;5021237;28;20052;-56
2022/10/25 07:48:02;;;;;;;6.32;1.10;;;17.30;59.00;;;;;;5025541;28;20492;-54
2022/10/25 07:50:30;;;;;;;7.45;1.10;;;17.30;59.10;;;;;;5024664;28;20404;-52
2022/10/25 07:52:57;;;;;;;3.40;0.80;;;17.40;59.70;;;;;;5032544;28;20535;-50
2022/10/25 07:55:25;;;;;;;10.48;1.35;;;17.40;59.20;;;;;;5036778;28;20061;-54
2022/10/25 07:57:52;;;;;;;8.20;1.25;;;17.40;59.10;;;;;;5035543;28;20060;-54
2022/10/25 08:00:19;;;;;;;2.90;0.82;;;17.40;59.10;;;;;;5032020;28;20489;-51
2022/10/25 08:02:47;;;;;;;5.45;1.70;;;17.50;59.10;;;;;;5036461;28;20059;-51
2022/10/25 08:05:15;;;;;;;7.63;1.02;;;17.50;59.10;;;;;;5035034;28;20507;-51
2022/10/25 08:07:42;;;;;;;3.47;0.88;;;17.60;59.10;;;;;;5034170;28;20548;-50
2022/10/25 08:10:10;;;;;;;3.63;0.82;;;17.60;59.00;;;;;;5035737;28;20531;-47
2022/10/25 08:12:37;;;;;;;4.60;1.48;;;17.60;58.90;;;;;;5030632;28;20053;-44
2022/10/25 08:15:05;;;;;;;5.68;1.00;;;17.70;58.90;;;;;;5030291;28;20072;-48
2022/10/25 08:17:32;;;;;;;4.82;0.73;;;17.70;58.80;;;;;;5040446;28;20060;-46
2022/10/25 08:19:59;;;;;;;5.43;1.13;;;17.70;58.70;;;;;;5038871;28;20060;-49
2022/10/25 08:22:28;;;;;;;6.57;1.20;;;17.80;58.60;;;;;;5035570;28;20060;-52
2022/10/25 08:24:55;;;;;;;3.25;1.02;;;17.80;58.50;;;;;;5036644;28;20060;-48
2022/10/25 08:27:22;;;;;;;7.97;1.08;;;17.90;58.40;;;;;;5024735;28;20064;-49
2022/10/25 08:29:50;;;;;;;8.65;1.35;;;17.90;58.20;;;;;;5029692;28;20056;-45
2022/10/25 08:32:17;;;;;;;3.80;0.95;;;18.00;58.20;;;;;;5037009;28;20053;-47
2022/10/25 08:34:44;;;;;;;4.10;1.00;;;18.00;58.00;;;;;;5044012;28;20484;-45
2022/10/25 08:37:12;;;;;;;5.75;1.00;;;18.00;57.80;;;;;;5042884;28;20061;-47
2022/10/25 08:39:41;;;;;;;5.82;1.20;;;18.00;57.90;;;;;;5040319;28;20044;-48
2022/10/25 08:42:20;;;;;;;4.00;1.27;;;18.10;57.80;;;;;;5033072;28;20064;-46
2022/10/25 08:44:53;;;;;;;5.50;1.10;;;18.10;57.70;;;;;;5034212;28;20060;-47
2022/10/25 08:47:28;;;;;;;4.70;1.15;;;18.10;57.70;;;;;;5023601;28;20053;-48
2022/10/25 08:50:00;;;;;;;5.07;0.88;;;18.20;57.60;;;;;;5029167;28;20559;-47
2022/10/25 08:52:33;;;;;;;6.50;1.30;;;18.20;57.60;;;;;;5028453;28;20056;-45
2022/10/25 08:55:05;;;;;;;4.18;1.10;;;18.20;57.50;;;;;;5035821;28;20072;-49
2022/10/25 08:57:34;;;;;;;3.42;1.35;;;18.30;57.60;;;;;;5042537;28;20412;-49
2022/10/25 09:00:06;;;;;;;7.03;1.50;;;18.30;57.60;;;;;;5038862;28;20053;-45
2022/10/25 09:02:39;;;;;;;6.70;0.88;;;18.30;57.50;;;;;;5037235;28;20049;-46
2022/10/25 09:05:16;;;;;;;6.05;0.90;;;18.30;57.40;;;;;;5036630;28;20057;-44
2022/10/25 09:07:58;;;;;;;2.75;0.93;;;18.30;57.30;;;;;;5033613;28;20068;-51
2022/10/25 09:10:39;;;;;;;7.20;1.30;;;18.40;57.20;;;;;;5033783;28;20049;-43
2022/10/25 09:13:15;;;;;;;4.35;0.93;;;18.40;57.00;;;;;;5036010;28;20052;-48
2022/10/25 09:15:53;;;;;;;7.90;1.20;;;18.40;56.80;;;;;;5039930;28;20053;-46
2022/10/25 09:18:28;;;;;;;6.10;1.30;;;18.50;56.70;;;;;;5040188;28;20064;-46
2022/10/25 09:20:56;;;;;;;8.85;1.30;;;18.50;56.70;;;;;;5042395;28;20057;-48
2022/10/25 09:23:30;;;;;;;3.13;0.93;;;18.50;56.70;;;;;;5042163;28;20048;-50
2022/10/25 09:26:04;;;;;;;9.48;1.45;;;18.50;56.70;;;;;;5043900;28;20053;-45
2022/10/25 09:28:40;;;;;;;;;;;18.50;56.80;;;;;;5041361;28;20061;-47
2022/10/25 09:31:13;;;;;;;5.70;1.30;;;18.60;57.00;;;;;;5037515;28;19925;-43
2022/10/25 09:33:45;;;;;;;6.15;0.90;;;18.60;56.60;;;;;;5041646;28;20052;-44
2022/10/25 09:36:14;;;;;;;3.60;0.85;;;18.70;56.50;;;;;;5038620;28;20060;-43
2022/10/25 09:38:46;;;;;;;2.33;0.90;;;18.60;56.40;;;;;;5041941;28;20445;-46
2022/10/25 09:41:19;;;;;;;6.10;0.93;;;18.70;56.40;;;;;;5032719;28;20472;-45
2022/10/25 09:43:56;;;;;;;6.60;0.98;;;18.70;56.30;;;;;;5037997;28;20053;-46
2022/10/25 09:46:31;;;;;;;5.07;1.25;;;18.70;56.30;;;;;;5038341;28;20053;-45
2022/10/25 09:49:02;;;;;;;4.03;1.10;;;18.70;56.30;;;;;;5034313;28;20057;-44
2022/10/25 09:51:34;;;;;;;5.30;1.30;;;18.70;56.20;;;;;;5039335;28;20049;-49
2022/10/25 09:54:10;;;;;;;6.55;0.85;;;18.80;56.00;;;;;;5041360;28;20056;-49
2022/10/25 09:56:39;;;;;;;5.43;0.95;;;18.80;56.00;;;;;;5044570;28;20052;-51
2022/10/25 09:59:11;;;;;;;2.65;0.80;;;18.80;55.80;;;;;;5039540;28;20067;-50
2022/10/25 10:01:40;;;;;;;4.88;0.98;;;18.80;55.90;;;;;;5040824;28;20071;-45
2022/10/25 10:04:25;;;;;;;2.75;0.85;;;18.80;55.70;;;;;;5042460;28;20071;-48
2022/10/25 10:06:57;;;;;;;3.03;1.00;;;18.80;55.50;;;;;;5038385;28;20603;-49
2022/10/25 10:09:28;;;;;;;4.32;1.20;;;18.80;55.50;;;;;;5030689;28;20418;-49
2022/10/25 10:11:59;;;;;;;5.78;1.10;;;18.90;55.60;;;;;;5038499;28;20057;-44
2022/10/25 10:14:34;;;;;;;3.05;0.70;;;18.90;55.40;;;;;;5042195;28;20056;-49
2022/10/25 10:17:02;;;;;;;2.85;0.70;;;18.90;55.40;;;;;;5042202;28;20061;-47
2022/10/25 10:19:30;;;;;;;6.43;1.15;;;18.90;55.30;;;;;;5041532;28;20056;-48
2022/10/25 10:21:59;;;;;;;5.25;0.90;;;18.90;55.20;;;;;;5038034;28;20409;-45
2022/10/25 10:24:29;;;;;;;2.75;0.70;;;18.90;55.10;;;;;;5042488;28;20075;-44
2022/10/25 10:26:59;;;;;;;4.35;0.90;;;18.90;55.10;;;;;;5040060;28;20057;-50
2022/10/25 10:29:28;;;;;;;5.35;1.15;;;18.90;55.00;;;;;;5042508;28;20056;-49
2022/10/25 10:31:59;;;;;;;3.17;0.98;;;19.00;55.00;;;;;;5034408;28;20049;-49
2022/10/25 10:34:29;;;;;;;4.18;0.85;;;19.00;55.10;;;;;;5040849;28;20048;-49
2022/10/25 10:37:05;;;;;;;3.50;0.90;;;19.00;55.10;;;;;;5041983;28;20060;-50
2022/10/25 10:39:33;;;;;;;3.58;1.02;;;19.00;55.10;;;;;;5030743;28;20053;-51
2022/10/25 10:42:14;;;;;;;5.70;0.88;;;19.00;55.20;;;;;;5040238;28;20488;-47
2022/10/25 10:44:41;;;;;;;2.97;1.13;;;19.00;55.20;;;;;;5040650;28;20063;-47
2022/10/25 10:47:12;;;;;;;2.65;0.80;;;19.00;55.30;;;;;;5041224;28;20057;-51
2022/10/25 10:49:42;;;;;;;5.47;1.30;;;19.10;55.40;;;;;;5039142;28;20060;-49
2022/10/25 10:52:29;;;;;;;4.95;1.10;;;19.10;55.20;;;;;;5039477;28;20049;-48
2022/10/25 10:54:57;;;;;;;4.35;0.85;;;19.10;55.10;;;;;;5041282;28;20049;-51
2022/10/25 10:57:31;;;;;;;3.55;0.90;;;19.20;55.20;;;;;;5042613;28;20072;-42
2022/10/25 11:00:00;;;;;;;4.80;1.50;;;19.20;54.50;;;;;;5042695;28;20497;-44
2022/10/25 11:02:39;;;;;;;3.45;0.80;;;19.20;54.10;;;;;;5041965;28;20064;-44
2022/10/25 11:05:20;;;;;;;3.17;0.68;;;19.20;53.70;;;;;;5040844;28;20059;-49
2022/10/25 11:07:55;;;;;;;3.28;0.80;;;19.20;53.50;;;;;;5029749;28;20052;-45
2022/10/25 11:10:28;;;;;;;1.48;0.50;;;19.30;53.30;;;;;;5038928;28;20061;-47
2022/10/25 11:13:17;;;;;;;1.73;0.50;;;19.20;53.20;;;;;;5040564;28;20653;-46
2022/10/25 11:16:20;;;;;;;1.70;0.55;;;19.20;52.90;;;;;;5036712;28;20048;-47
2022/10/25 11:19:20;;;;;;;5.28;0.60;;;19.20;52.70;;;;;;5040480;28;20076;-49
2022/10/25 11:22:19;;;;;;;2.72;0.50;;;19.20;52.80;;;;;;5023201;28;20056;-50
2022/10/25 11:25:00;;;;;;;6.78;0.70;;;19.30;53.30;;;;;;5033678;28;20052;-49
2022/10/25 11:27:39;;;;;;;2.80;0.82;;;19.30;53.00;;;;;;5035710;28;20068;-49
2022/10/25 11:30:14;;;;;;;1.38;0.52;;;19.30;53.00;;;;;;5031458;28;20068;-48
2022/10/25 11:33:16;;;;;;;2.97;1.10;;;19.30;53.10;;;;;;5038270;28;20060;-48
2022/10/25 11:35:58;;;;;;;3.35;1.00;;;19.30;53.00;;;;;;5038008;28;20062;-48
2022/10/25 11:38:36;;;;;;;6.32;1.45;;;19.30;52.90;;;;;;5037616;28;20061;-52
2022/10/25 11:41:22;;;;;;;4.10;0.80;;;19.40;53.20;;;;;;5030774;28;20049;-46
2022/10/25 11:44:05;;;;;;;2.83;0.63;;;19.30;53.30;;;;;;5041072;28;20056;-51
2022/10/25 11:46:46;;;;;;;3.85;1.10;;;19.40;53.40;;;;;;5040841;28;20412;-51
2022/10/25 11:49:33;;;;;;;3.28;0.77;;;19.40;53.30;;;;;;5035223;28;20052;-48
2022/10/25 11:52:21;;;;;;;3.45;0.98;;;19.40;53.30;;;;;;5018067;28;20053;-51
2022/10/25 11:54:57;;;;;;;4.18;0.80;;;19.40;53.20;;;;;;5022375;28;20057;-49
2022/10/25 11:57:38;;;;;;;7.50;1.30;;;19.40;53.50;;;;;;5033346;28;20063;-50
2022/10/25 12:00:14;;;;;;;4.75;1.13;;;19.50;53.60;;;;;;5017478;28;20053;-50
2022/10/25 12:02:55;;;;;;;4.60;0.77;;;19.50;53.30;;;;;;5040305;28;20045;-48
2022/10/25 12:05:29;;;;;;;2.03;0.60;;;19.50;53.30;;;;;;5039233;28;20511;-49
2022/10/25 12:08:09;;;;;;;5.13;0.85;;;19.50;53.20;;;;;;5038864;28;20497;-51
2022/10/25 12:10:39;;;;;;;3.03;0.52;;;19.60;53.30;;;;;;5043592;28;20049;-49
2022/10/25 12:13:14;;;;;;;2.70;0.70;;;19.50;53.20;;;;;;5025659;28;20489;-49
2022/10/25 12:15:45;;;;;;;3.45;0.60;;;19.60;53.20;;;;;;5035263;28;20500;-48
2022/10/25 12:18:16;;;;;;;2.85;0.75;;;19.60;53.30;;;;;;5042252;28;20057;-45
2022/10/25 12:20:48;;;;;;;1.48;0.60;;;19.60;53.00;;;;;;5031763;28;20049;-53
2022/10/25 12:23:18;;;;;;;2.75;0.70;;;19.70;53.20;;;;;;5041635;28;20654;-49
2022/10/25 12:25:48;;;;;;;2.08;0.70;;;19.60;53.20;;;;;;5044218;28;20053;-49
2022/10/25 12:28:21;;;;;;;5.00;1.20;;;19.70;53.30;;;;;;5040842;28;20056;-48
2022/10/25 12:30:52;;;;;;;3.28;0.70;;;19.70;53.00;;;;;;5039519;28;20057;-46
2022/10/25 12:33:31;;;;;;;6.53;1.10;;;19.70;52.90;;;;;;5042142;28;20056;-44
2022/10/25 12:36:02;;;;;;;1.63;0.60;;;19.70;52.70;;;;;;5041442;28;20049;-49
2022/10/25 12:38:34;;;;;;;4.95;0.75;;;19.70;52.80;;;;;;5033486;28;20053;-49
2022/10/25 12:41:07;;;;;;;2.72;0.80;;;19.70;52.80;;;;;;5039028;28;20064;-45
2022/10/25 12:43:42;;;;;;;3.25;1.10;;;19.80;52.40;;;;;;5039582;28;20056;-47
2022/10/25 12:46:40;;;;;;;2.38;0.65;;;19.70;51.80;;;;;;5044236;28;20068;-46
2022/10/25 12:49:36;;;;;;;1.85;0.50;;;19.70;51.40;;;;;;5038842;28;20049;-47
2022/10/25 12:52:29;;;;;;;2.20;0.63;;;19.70;51.40;;;;;;5004797;28;20053;-46
2022/10/25 12:55:25;;;;;;;3.77;0.87;;;19.70;51.40;;;;;;5039581;28;20511;-50
2022/10/25 12:58:06;;;;;;;2.65;0.73;;;19.80;51.40;;;;;;5033728;28;20060;-49
2022/10/25 13:00:40;;;;;;;4.88;0.90;;;19.70;51.40;;;;;;5036081;28;20060;-45
2022/10/25 13:03:22;;;;;;;;;;;19.70;51.50;;;;;;5043995;28;20052;-48
2022/10/25 13:06:16;;;;;;;3.90;1.00;;;19.80;51.80;;;;;;5040585;28;20315;-45
2022/10/25 13:08:44;;;;;;;3.37;0.80;;;19.80;51.50;;;;;;5042823;28;20460;-44
2022/10/25 13:11:12;;;;;;;4.40;0.80;;;19.80;51.60;;;;;;5027280;28;20041;-47